createdAt,value
2022-08-17T00:00:43.402Z,5.38
2022-08-17T00:03:28.168Z,4.35
2022-08-17T00:06:32.970Z,4.40
2022-08-17T00:09:28.543Z,4.22
2022-08-17T00:12:43.356Z,5.33
2022-08-17T00:15:19.798Z,5.05
2022-08-17T00:18:53.894Z,4.70
2022-08-17T00:21:12.205Z,4.63
2022-08-17T00:24:01.952Z,4.32
2022-08-17T00:26:46.211Z,5.10
2022-08-17T00:29:34.919Z,4.40
2022-08-17T00:33:22.741Z,6.72
2022-08-17T00:35:28.405Z,4.30
2022-08-17T00:38:11.988Z,4.63
2022-08-17T00:41:05.302Z,4.05
2022-08-17T00:44:02.583Z,4.88
2022-08-17T00:46:51.488Z,5.57
2022-08-17T00:49:33.192Z,5.93
2022-08-17T00:52:24.943Z,8.23
2022-08-17T00:55:07.345Z,8.10
2022-08-17T00:58:01.882Z,6.65
2022-08-17T01:00:50.021Z,10.93
2022-08-17T01:03:37.951Z,11.27
2022-08-17T01:06:19.600Z,8.07
2022-08-17T01:09:08.790Z,8.20
2022-08-17T01:11:50.864Z,6.18
2022-08-17T01:14:37.951Z,6.75
2022-08-17T01:17:19.593Z,6.72
2022-08-17T01:20:10.030Z,5.88
2022-08-17T01:22:51.281Z,5.78
2022-08-17T01:25:37.966Z,7.93
2022-08-17T01:28:36.172Z,4.85
2022-08-17T01:31:26.013Z,8.60
2022-08-17T01:34:11.876Z,6.00
2022-08-17T01:36:59.073Z,6.10
2022-08-17T01:39:49.396Z,6.70
2022-08-17T01:43:04.829Z,6.95
2022-08-17T01:46:03.107Z,9.50
2022-08-17T01:48:52.982Z,6.15
2022-08-17T01:54:32.070Z,7.00
2022-08-17T01:57:15.883Z,4.95
2022-08-17T02:00:04.051Z,6.40
2022-08-17T02:02:45.331Z,4.65
2022-08-17T02:05:34.035Z,6.82
2022-08-17T02:08:19.809Z,4.85
2022-08-17T02:11:08.942Z,7.77
2022-08-17T02:14:02.372Z,6.47
2022-08-17T02:16:51.412Z,4.93
2022-08-17T02:19:31.868Z,6.78
2022-08-17T02:22:19.991Z,4.72
2022-08-17T02:25:03.647Z,5.47
2022-08-17T02:27:51.014Z,4.03
2022-08-17T02:30:59.741Z,6.20
2022-08-17T02:33:43.764Z,7.63
2022-08-17T02:36:27.394Z,5.72
2022-08-17T02:39:19.080Z,4.95
2022-08-17T02:42:10.431Z,7.05
2022-08-17T02:44:58.026Z,6.15
2022-08-17T02:47:38.876Z,7.80
2022-08-17T02:50:31.147Z,4.88
2022-08-17T02:53:11.902Z,6.60
2022-08-17T02:56:00.019Z,6.43
2022-08-17T02:58:41.690Z,4.63
2022-08-17T03:01:30.993Z,6.07
2022-08-17T03:04:12.188Z,7.68
2022-08-17T03:06:59.989Z,4.25
2022-08-17T03:09:46.905Z,7.07
2022-08-17T03:12:28.611Z,9.23
2022-08-17T03:15:28.351Z,7.00
2022-08-17T03:18:18.862Z,6.68
2022-08-17T03:21:14.066Z,5.78
2022-08-17T03:23:56.426Z,4.68
2022-08-17T03:26:43.916Z,5.13
2022-08-17T03:29:26.009Z,6.75
2022-08-17T03:32:22.211Z,4.57
2022-08-17T03:35:09.293Z,7.88
2022-08-17T03:38:01.265Z,5.97
2022-08-17T03:40:56.594Z,6.72
2022-08-17T03:43:47.672Z,6.53
2022-08-17T03:46:48.403Z,6.60
2022-08-17T03:49:55.711Z,8.38
2022-08-17T03:52:55.928Z,4.45
2022-08-17T03:56:02.946Z,9.25
2022-08-17T03:58:44.053Z,7.20
2022-08-17T04:01:33.992Z,8.73
2022-08-17T04:04:15.109Z,7.25
2022-08-17T04:07:01.966Z,7.70
2022-08-17T04:09:56.922Z,8.48
2022-08-17T04:13:00.964Z,5.35
2022-08-17T04:15:43.092Z,6.70
2022-08-17T04:18:29.949Z,5.63
2022-08-17T04:21:12.284Z,5.13
2022-08-17T04:24:01.313Z,5.47
2022-08-17T04:26:53.053Z,9.13
2022-08-17T04:29:54.851Z,7.05
2022-08-17T04:33:04.469Z,7.07
2022-08-17T04:35:47.987Z,7.47
2022-08-17T04:38:32.069Z,7.97
2022-08-17T04:41:40.046Z,6.10
2022-08-17T04:44:37.204Z,6.60
2022-08-17T04:47:25.959Z,7.70
2022-08-17T04:50:07.055Z,7.68
2022-08-17T04:52:55.002Z,7.65
2022-08-17T04:55:37.184Z,8.32
2022-08-17T04:58:27.514Z,8.15
2022-08-17T05:01:09.131Z,5.25
2022-08-17T05:03:57.558Z,7.38
2022-08-17T05:06:38.801Z,8.80
2022-08-17T05:09:36.186Z,7.18
2022-08-17T05:12:23.085Z,6.68
2022-08-17T05:15:03.993Z,7.45
2022-08-17T05:17:52.647Z,9.20
2022-08-17T05:20:33.967Z,8.05
2022-08-17T05:23:25.096Z,8.50
2022-08-17T05:26:06.283Z,13.25
2022-08-17T05:29:00.367Z,8.90
2022-08-17T05:31:43.015Z,10.18
2022-08-17T05:34:32.143Z,6.93
2022-08-17T05:37:12.970Z,7.88
2022-08-17T05:40:02.096Z,8.38
2022-08-17T05:42:43.441Z,9.10
2022-08-17T05:45:54.715Z,6.00
2022-08-17T05:48:39.509Z,8.57
2022-08-17T05:52:06.140Z,9.30
2022-08-17T05:55:02.456Z,7.85
2022-08-17T05:58:03.100Z,8.90
2022-08-17T06:00:57.097Z,8.75
2022-08-17T06:04:03.006Z,10.38
2022-08-17T06:07:03.385Z,11.93
2022-08-17T06:10:08.036Z,10.15
2022-08-17T06:13:08.899Z,9.25
2022-08-17T06:15:51.704Z,7.55
2022-08-17T06:18:53.023Z,9.63
2022-08-17T06:21:43.145Z,9.00
2022-08-17T06:24:57.043Z,9.75
2022-08-17T06:27:57.082Z,7.93
2022-08-17T06:31:00.650Z,10.13
2022-08-17T06:33:46.439Z,7.97
2022-08-17T06:36:47.439Z,8.13
2022-08-17T06:40:07.410Z,8.30
2022-08-17T06:43:11.164Z,13.82
2022-08-17T06:46:04.104Z,8.40
2022-08-17T06:48:59.241Z,9.93
2022-08-17T06:52:01.468Z,8.85
2022-08-17T06:55:07.220Z,8.20
2022-08-17T06:57:57.609Z,5.43
2022-08-17T07:00:58.194Z,8.68
2022-08-17T07:03:55.319Z,8.48
2022-08-17T07:06:56.836Z,5.28
2022-08-17T07:09:54.266Z,6.70
2022-08-17T07:12:48.550Z,6.47
2022-08-17T07:15:45.382Z,6.95
2022-08-17T07:18:41.712Z,6.25
2022-08-17T07:21:48.764Z,4.65
2022-08-17T07:24:54.192Z,5.45
2022-08-17T07:27:56.615Z,4.68
2022-08-17T07:30:53.285Z,6.22
2022-08-17T07:33:41.732Z,5.28
2022-08-17T07:36:36.283Z,3.90
2022-08-17T07:39:24.008Z,6.40
2022-08-17T07:42:12.077Z,7.68
2022-08-17T07:45:22.115Z,6.95
2022-08-17T07:48:27.180Z,3.83
2022-08-17T07:51:09.334Z,5.60
2022-08-17T07:54:12.887Z,5.47
2022-08-17T07:57:03.522Z,6.32
2022-08-17T08:00:16.592Z,5.93
2022-08-17T08:03:23.676Z,3.28
2022-08-17T08:06:29.083Z,7.80
2022-08-17T08:09:10.191Z,5.85
2022-08-17T08:11:58.474Z,5.20
2022-08-17T08:14:39.831Z,5.93
2022-08-17T08:17:32.103Z,8.20
2022-08-17T08:20:52.521Z,5.43
2022-08-17T08:23:28.509Z,6.70
2022-08-17T08:26:36.721Z,6.50
2022-08-17T08:29:25.229Z,5.95
2022-08-17T08:32:27.282Z,9.75
2022-08-17T08:35:33.197Z,9.30
2022-08-17T08:38:50.691Z,9.30
2022-08-17T08:41:52.379Z,8.38
2022-08-17T08:45:00.473Z,8.82
2022-08-17T08:47:58.603Z,9.07
2022-08-17T08:50:55.996Z,9.40
2022-08-17T08:54:05.509Z,8.65
2022-08-17T08:57:22.152Z,11.95
2022-08-17T09:00:22.128Z,5.97
2022-08-17T09:03:10.834Z,10.10
2022-08-17T09:06:33.313Z,9.05
2022-08-17T09:09:42.219Z,8.13
2022-08-17T09:13:10.086Z,5.57
2022-08-17T09:16:20.321Z,17.42
2022-08-17T09:19:15.146Z,15.63
2022-08-17T09:22:12.080Z,10.45
2022-08-17T09:25:07.086Z,9.48
2022-08-17T09:28:21.027Z,6.67
2022-08-17T09:31:16.576Z,10.18
2022-08-17T09:33:58.767Z,6.47
2022-08-17T09:37:12.139Z,9.88
2022-08-17T09:40:22.914Z,11.27
2022-08-17T09:43:20.632Z,10.52
2022-08-17T09:46:18.304Z,10.15
2022-08-17T09:49:34.128Z,13.50
2022-08-17T09:52:23.307Z,17.70
2022-08-17T09:55:13.162Z,11.93
2022-08-17T09:58:15.295Z,13.57
2022-08-17T10:01:25.359Z,14.52
2022-08-17T10:04:19.889Z,10.02
2022-08-17T10:07:31.404Z,12.75
2022-08-17T10:10:32.446Z,9.10
2022-08-17T10:13:41.170Z,8.02
2022-08-17T10:16:48.250Z,7.60
2022-08-17T10:19:43.966Z,9.05
2022-08-17T10:23:08.727Z,7.57
2022-08-17T10:26:15.578Z,6.90
2022-08-17T10:29:49.058Z,3.95
2022-08-17T10:32:41.320Z,6.97
2022-08-17T10:35:41.271Z,8.48
2022-08-17T10:38:44.176Z,4.20
2022-08-17T10:41:50.400Z,6.97
2022-08-17T10:44:53.634Z,5.05
2022-08-17T10:48:06.156Z,5.93
2022-08-17T10:51:08.563Z,6.22
2022-08-17T10:53:56.384Z,8.38
2022-08-17T10:56:50.987Z,5.80
2022-08-17T10:59:41.994Z,8.75
2022-08-17T11:02:31.712Z,6.93
2022-08-17T11:05:27.608Z,6.55
2022-08-17T11:08:22.188Z,5.78
2022-08-17T11:11:14.073Z,8.30
2022-08-17T11:14:13.575Z,7.03
2022-08-17T11:17:24.416Z,5.07
2022-08-17T11:20:44.601Z,6.07
2022-08-17T11:23:46.325Z,6.93
2022-08-17T11:26:33.784Z,6.10
2022-08-17T11:29:31.492Z,5.95
2022-08-17T11:32:20.204Z,5.57
2022-08-17T11:35:23.425Z,6.95
2022-08-17T11:38:33.196Z,6.95
2022-08-17T11:41:37.711Z,7.00
2022-08-17T11:44:31.584Z,8.25
2022-08-17T11:48:16.385Z,7.80
2022-08-17T11:51:39.486Z,8.10
2022-08-17T11:54:38.848Z,7.03
2022-08-17T11:57:36.493Z,5.38
2022-08-17T12:00:52.331Z,3.97
2022-08-17T12:03:40.252Z,4.35
2022-08-17T12:06:35.376Z,4.95
2022-08-17T12:09:23.678Z,4.13
2022-08-17T12:12:19.315Z,3.00
2022-08-17T12:15:10.674Z,4.88
2022-08-17T12:18:02.409Z,2.72
2022-08-17T12:20:56.094Z,2.95
2022-08-17T12:23:58.420Z,3.33
2022-08-17T12:26:43.438Z,2.33
2022-08-17T12:29:38.470Z,3.20
2022-08-17T12:32:33.981Z,8.18
2022-08-17T12:35:30.149Z,3.95
2022-08-17T12:38:26.932Z,3.55
2022-08-17T12:41:48.270Z,2.65
2022-08-17T12:44:43.016Z,3.55
2022-08-17T12:47:46.836Z,2.90
2022-08-17T12:50:28.845Z,1.90
2022-08-17T12:53:31.035Z,2.13
2022-08-17T12:56:25.410Z,2.25
2022-08-17T12:59:30.199Z,2.00
2022-08-17T13:02:19.744Z,3.78
2022-08-17T13:05:08.741Z,5.22
2022-08-17T13:07:57.295Z,2.53
2022-08-17T13:10:45.357Z,3.00
2022-08-17T13:13:36.582Z,3.15
2022-08-17T13:16:26.766Z,3.33
2022-08-17T13:19:18.939Z,2.55
2022-08-17T13:22:35.640Z,3.58
2022-08-17T13:25:29.320Z,2.90
2022-08-17T13:28:37.850Z,4.30
2022-08-17T13:31:42.872Z,4.38
2022-08-17T13:35:15.428Z,4.00
2022-08-17T13:38:22.954Z,4.22
2022-08-17T13:41:10.793Z,4.38
2022-08-17T13:43:56.513Z,5.78
2022-08-17T13:46:49.794Z,2.75
2022-08-17T13:49:48.986Z,4.63
2022-08-17T13:52:52.246Z,5.13
2022-08-17T13:55:39.706Z,3.22
2022-08-17T13:58:38.472Z,3.38
2022-08-17T14:01:42.468Z,3.03
2022-08-17T14:04:35.473Z,4.28
2022-08-17T14:07:17.774Z,3.50
2022-08-17T14:10:17.273Z,3.35
2022-08-17T14:13:04.589Z,2.65
2022-08-17T14:15:54.615Z,1.90
2022-08-17T14:18:56.230Z,1.58
2022-08-17T14:21:44.811Z,2.20
2022-08-17T14:24:45.095Z,2.25
2022-08-17T14:27:51.802Z,2.38
2022-08-17T14:30:53.203Z,3.67
2022-08-17T14:33:37.606Z,4.78
2022-08-17T14:36:27.555Z,1.20
2022-08-17T14:39:09.068Z,2.25
2022-08-17T14:42:05.687Z,2.17
2022-08-17T14:44:51.886Z,1.20
2022-08-17T14:47:41.424Z,2.00
2022-08-17T14:50:22.425Z,4.82
2022-08-17T14:53:15.710Z,1.73
2022-08-17T14:56:01.698Z,1.85
2022-08-17T14:58:49.447Z,1.48
2022-08-17T15:01:31.807Z,1.83
2022-08-17T15:04:22.116Z,4.63
2022-08-17T15:07:04.567Z,2.17
2022-08-17T15:09:55.644Z,2.03
2022-08-17T15:12:44.514Z,3.20
2022-08-17T15:15:28.865Z,2.20
2022-08-17T15:18:32.401Z,1.85
2022-08-17T15:21:19.731Z,2.35
2022-08-17T15:24:17.142Z,3.55
2022-08-17T15:27:02.404Z,2.42
2022-08-17T15:29:54.264Z,1.92
2022-08-17T15:32:40.607Z,3.95
2022-08-17T15:35:39.065Z,4.05
2022-08-17T15:38:23.001Z,2.65
2022-08-17T15:41:20.265Z,1.88
2022-08-17T15:44:05.077Z,4.13
2022-08-17T15:46:59.449Z,1.48
2022-08-17T15:49:49.296Z,2.75
2022-08-17T15:52:45.827Z,1.55
2022-08-17T15:55:35.089Z,2.13
2022-08-17T15:58:22.462Z,3.08
2022-08-17T16:01:31.335Z,1.90
2022-08-17T16:04:30.771Z,1.55
2022-08-17T16:07:15.695Z,4.55
2022-08-17T16:10:03.978Z,4.47
2022-08-17T16:13:17.350Z,2.42
2022-08-17T16:16:11.008Z,2.63
2022-08-17T16:18:54.502Z,2.45
2022-08-17T16:21:46.489Z,2.70
2022-08-17T16:24:28.235Z,3.55
2022-08-17T16:27:18.752Z,5.18
2022-08-17T16:29:59.619Z,3.00
2022-08-17T16:32:47.516Z,5.13
2022-08-17T16:35:34.025Z,3.45
2022-08-17T16:38:22.320Z,5.53
2022-08-17T16:41:03.387Z,3.45
2022-08-17T16:43:51.494Z,3.40
2022-08-17T16:46:32.475Z,2.97
2022-08-17T16:49:35.315Z,4.47
2022-08-17T16:52:32.759Z,2.50
2022-08-17T16:55:25.639Z,3.10
2022-08-17T16:58:06.820Z,3.60
2022-08-17T17:01:00.770Z,2.85
2022-08-17T17:03:49.914Z,4.00
2022-08-17T17:06:51.540Z,4.60
2022-08-17T17:09:46.488Z,7.28
2022-08-17T17:13:03.627Z,6.97
2022-08-17T17:16:07.722Z,7.47
2022-08-17T17:19:30.036Z,6.32
2022-08-17T17:22:28.461Z,6.53
2022-08-17T17:25:39.889Z,6.35
2022-08-17T17:32:17.233Z,5.90
2022-08-17T17:35:15.659Z,4.93
2022-08-17T17:38:17.230Z,6.38
2022-08-17T17:41:15.413Z,6.78
2022-08-17T17:44:13.227Z,4.28
2022-08-17T17:47:04.956Z,6.00
2022-08-17T17:52:57.598Z,6.47
2022-08-17T17:56:34.963Z,10.55
2022-08-17T18:00:20.471Z,4.50
2022-08-17T18:03:46.020Z,3.75
2022-08-17T18:10:19.654Z,6.72
2022-08-17T18:14:02.611Z,4.53
2022-08-17T18:17:00.531Z,5.32
2022-08-17T18:19:42.971Z,7.82
2022-08-17T18:22:31.525Z,5.55
2022-08-17T18:25:50.462Z,6.22
2022-08-17T18:28:48.793Z,7.90
2022-08-17T18:31:32.741Z,8.70
2022-08-17T18:34:48.370Z,4.35
2022-08-17T18:38:05.436Z,4.55
2022-08-17T18:41:20.126Z,4.45
2022-08-17T18:44:27.917Z,5.50
2022-08-17T18:47:38.873Z,8.23
2022-08-17T18:50:59.197Z,6.78
2022-08-17T18:53:52.889Z,7.85
2022-08-17T18:56:43.808Z,5.28
2022-08-17T18:59:34.872Z,5.40
2022-08-17T19:02:36.123Z,6.95
2022-08-17T19:05:44.335Z,8.48
2022-08-17T19:08:39.067Z,8.13
2022-08-17T19:11:40.567Z,6.47
2022-08-17T19:14:38.668Z,8.10
2022-08-17T19:17:39.656Z,7.32
2022-08-17T19:20:47.411Z,9.82
2022-08-17T19:24:29.975Z,11.60
2022-08-17T19:27:22.545Z,13.95
2022-08-17T19:30:21.385Z,13.32
2022-08-17T19:33:13.548Z,13.95
2022-08-17T19:36:16.259Z,10.20
2022-08-17T19:39:19.199Z,12.35
2022-08-17T19:42:25.054Z,13.63
2022-08-17T19:45:38.252Z,10.45
2022-08-17T19:49:33.247Z,14.15
2022-08-17T19:52:31.390Z,12.70
2022-08-17T19:55:48.673Z,15.48
2022-08-17T19:59:04.949Z,17.45
2022-08-17T20:02:04.253Z,16.08
2022-08-17T20:04:56.712Z,18.48
2022-08-17T20:08:35.523Z,15.52
2022-08-17T20:12:13.435Z,14.82
2022-08-17T20:15:16.476Z,21.30
2022-08-17T20:18:12.003Z,16.42
2022-08-17T20:21:06.720Z,19.17
2022-08-17T20:23:57.051Z,16.17
2022-08-17T20:26:59.407Z,15.93
2022-08-17T20:30:06.545Z,16.50
2022-08-17T20:33:05.975Z,13.38
2022-08-17T20:36:16.544Z,19.38
2022-08-17T20:39:12.927Z,17.30
2022-08-17T20:42:30.560Z,16.23
2022-08-17T20:45:31.461Z,16.75
2022-08-17T20:48:37.576Z,17.75
2022-08-17T20:52:01.489Z,19.10
2022-08-17T20:55:03.738Z,17.60
2022-08-17T20:57:55.179Z,20.48
2022-08-17T21:00:37.421Z,18.75
2022-08-17T21:04:49.137Z,19.85
2022-08-17T21:07:51.481Z,18.17
2022-08-17T21:10:47.716Z,20.58
2022-08-17T21:17:36.767Z,21.40
2022-08-17T21:20:38.308Z,25.70
2022-08-17T21:23:50.076Z,27.45
2022-08-17T21:26:58.677Z,27.35
2022-08-17T21:29:40.489Z,22.85
2022-08-17T21:32:37.868Z,22.15
2022-08-17T21:35:38.999Z,23.10
2022-08-17T21:38:40.300Z,25.30
2022-08-17T21:41:35.735Z,23.35
2022-08-17T21:44:31.330Z,20.13
2022-08-17T21:47:32.648Z,21.88
2022-08-17T21:50:28.602Z,24.08
2022-08-17T21:53:11.664Z,22.98
2022-08-17T21:56:00.789Z,24.30
2022-08-17T21:58:48.577Z,23.60
2022-08-17T22:01:43.058Z,27.27
2022-08-17T22:04:31.719Z,26.67
2022-08-17T22:07:20.961Z,30.60
2022-08-17T22:10:02.937Z,30.13
2022-08-17T22:13:16.959Z,25.75
2022-08-17T22:16:28.746Z,27.80
2022-08-17T22:19:17.775Z,30.02
2022-08-17T22:22:11.607Z,27.00
2022-08-17T22:25:11.249Z,30.77
2022-08-17T22:28:04.709Z,28.52
2022-08-17T22:31:29.003Z,30.00
2022-08-17T22:34:09.986Z,30.23
2022-08-17T22:37:35.002Z,28.58
2022-08-17T22:40:15.821Z,31.27
2022-08-17T22:43:05.826Z,31.20
2022-08-17T22:45:53.371Z,30.75
2022-08-17T22:48:41.795Z,32.05
2022-08-17T22:51:28.714Z,29.75
2022-08-17T22:54:43.080Z,26.38
2022-08-17T22:57:56.348Z,29.10
2022-08-17T23:00:44.633Z,28.00
2022-08-17T23:03:31.451Z,28.95
2022-08-17T23:06:18.617Z,34.35
2022-08-17T23:09:03.072Z,31.85
2022-08-17T23:12:05.725Z,30.30
2022-08-17T23:14:53.737Z,31.15
2022-08-17T23:17:42.454Z,33.15
2022-08-17T23:20:31.882Z,27.15
2022-08-17T23:23:14.403Z,34.13
2022-08-17T23:26:02.723Z,32.33
2022-08-17T23:28:43.869Z,29.48
2022-08-17T23:31:34.876Z,35.30
2022-08-17T23:34:18.937Z,32.50
2022-08-17T23:37:05.718Z,30.70
2022-08-17T23:39:46.982Z,30.08
2022-08-17T23:42:39.816Z,31.33
2022-08-17T23:45:29.713Z,31.33
2022-08-17T23:48:32.424Z,31.02
2022-08-17T23:51:41.781Z,31.73
2022-08-17T23:54:35.582Z,34.73
2022-08-17T23:57:33.082Z,34.00
